< < Back
Terminal Aerodrome Forecast


Current Version              Previous Versions:   1  2  3  4  5  6  7  8  9  

Terminal Aerodrome Forecast

848
FTUS44 KBMX 310500
TAFANB
TAF
KANB 310520Z 3106/0106 35003KT P6SM SKC
     FM311800 29007KT P6SM SCT250
     FM312100 31016KT P6SM OVC050
     FM010300 33010KT P6SM SKC=

Latest METAR

303
SAUS70 KWBC 312300 RRA
MTRANB
METAR KANB 312253Z AUTO 33008G18KT 290V360 10SM FEW029 BKN038 OVC050
14/07 A2996 RMK AO2 SLP149 T01390072


USA.gov is the U.S. government's official web portal to all federal, state and local government web resources and services.